Apple Valley, California
Current Conditions -  °F | °C
As of 2:15 PM on Monday 24 Nov 2014 (Local Time) from KVCV Reporting Station
Clear Clear  
Wind Chill: 63°   Ceiling: Unl
Heat Index: 63°   Visibility: 10mi
Dew Point: 10°   Wind: 12mph
Humidity: 13%   Direction: 50°NE
Pressure: 30.35"   Gusts: NA
Location:  34.52°N, 117.21°W
Report Text: KVCV 242215Z AUTO 05010KT 10SM CLR 17/M12 A3035 RMK AO2
Loading
Personal Weather Stations






























Interactive Weather Map New forecast layout! Learn more

10-Day Weather Forecast

Advertisements
Track Severe Weather on mobile